Live aus Altenrhein
LIVE
LSZR 170120Z AUTO VRB01KT 9999 NSC 17/16 Q1020

People´s Info Center:

Öffnungszeiten Mo-Fr, 8-18 Uhr

 

info@peoples.ch

 
Aus Österreich:

T: +43 (0)5572 203 610

 

Aus CH / LI / DE:

T: +41 (0)71 858 51 60

 

Von Altenrhein & Köln nach Friedrichshafen

2x täglich ab Altenrhein und Köln/Bonn nach Friedrichshafen und tägliche Verbindungen ab Wien buchbar.

 

Der Bodensee-Airport Friedrichshafen ist der südlichste Verkehrsflughafen Deutschlands und liegt in Baden-Württemberg. Die Stadt Friedrichshafen - auch bekannt als Zeppelinstadt am Bodensee - bietet durch seine zentrale Lage am See und zu den nahen Bergen im Allgäu unbegrenzte Sport- und Freizeitmöglichkeiten.

 

Flug nach Friedrichshafen buchen
 
 
                       
 
 
 
 
   
   
   
 

Tarife & Fluggutscheine

Alle Preise auf einen Blick.

Vielflieger

Ticketblock mit eigenem Login.

Reverse Charge Verfahren

Geschäftliche Inlandflüge.

Flugplan